Time;durP1;ratioP1;P1;durP2;ratioP2;P2;SDS_P1;SDS_P2;PMS_P1;PMS_P2;Temp;Humidity;BMP_temperature;BMP_pressure;BME280_temperature;BME280_humidity;BME280_pressure;Samples;Min_cycle;Max_cycle;Signal;HPM_P1;HPM_P2
2021/05/09 00:00:38;;;;;;;3.80;2.45;;;9.60;87.50;;;;;;4967995;28;20049;-68
2021/05/09 00:03:04;;;;;;;5.93;2.33;;;9.60;87.60;;;;;;4968124;28;20035;-68
2021/05/09 00:05:29;;;;;;;4.15;2.40;;;9.80;86.10;;;;;;4967446;28;20662;-68
2021/05/09 00:07:55;;;;;;;3.75;2.70;;;9.80;86.30;;;;;;4968577;28;20035;-67
2021/05/09 00:10:21;;;;;;;4.00;2.25;;;9.70;87.00;;;;;;4966128;28;20671;-67
2021/05/09 00:12:47;;;;;;;3.65;2.38;;;9.70;86.70;;;;;;4968382;28;20027;-68
2021/05/09 00:15:16;;;;;;;5.25;2.60;;;9.80;86.70;;;;;;4969315;28;20035;-68
2021/05/09 00:17:42;;;;;;;3.67;2.22;;;9.80;86.60;;;;;;4967859;28;20498;-67
2021/05/09 00:20:09;;;;;;;4.88;2.40;;;9.80;86.70;;;;;;4966973;28;20034;-68
2021/05/09 00:22:36;;;;;;;5.40;2.60;;;9.90;85.60;;;;;;4969196;28;20077;-68
2021/05/09 00:25:02;;;;;;;4.05;2.08;;;10.00;85.40;;;;;;4964210;28;20487;-68
2021/05/09 00:27:28;;;;;;;3.72;2.33;;;10.00;85.80;;;;;;4967785;28;20038;-68
2021/05/09 00:29:53;;;;;;;3.80;2.20;;;10.00;85.90;;;;;;4966859;28;20085;-68
2021/05/09 00:32:19;;;;;;;3.80;2.33;;;10.00;85.40;;;;;;4967229;28;20030;-68
2021/05/09 00:34:45;;;;;;;3.45;2.38;;;10.00;85.70;;;;;;4966856;28;20054;-67
2021/05/09 00:37:10;;;;;;;3.35;2.13;;;10.10;84.50;;;;;;4967560;28;20263;-67
2021/05/09 00:39:36;;;;;;;5.43;2.38;;;10.10;84.70;;;;;;4964928;28;20066;-68
2021/05/09 00:42:03;;;;;;;3.95;2.13;;;10.10;85.30;;;;;;4965008;28;20043;-67
2021/05/09 00:44:29;;;;;;;4.20;2.40;;;10.10;84.70;;;;;;4966387;28;20038;-67
2021/05/09 00:46:55;;;;;;;3.25;2.08;;;10.20;84.40;;;;;;4966942;28;20023;-67
2021/05/09 00:49:21;;;;;;;3.95;2.38;;;10.20;84.60;;;;;;4967439;28;20427;-68
2021/05/09 00:51:48;;;;;;;4.80;2.08;;;10.10;84.90;;;;;;4966420;28;20118;-68
2021/05/09 00:54:19;;;;;;;3.20;2.10;;;10.20;84.90;;;;;;4966797;28;20057;-68
2021/05/09 00:56:47;;;;;;;5.43;2.42;;;10.20;84.50;;;;;;4966470;28;20326;-68
2021/05/09 00:59:15;;;;;;;5.85;2.20;;;10.20;84.30;;;;;;4957413;28;20038;-68
2021/05/09 01:01:42;;;;;;;5.45;1.98;;;10.30;84.00;;;;;;4965772;28;20035;-68
2021/05/09 01:04:11;;;;;;;6.43;1.88;;;10.30;83.90;;;;;;4968280;28;20400;-68
2021/05/09 01:06:37;;;;;;;6.10;2.03;;;10.30;84.20;;;;;;4966936;28;20027;-68
2021/05/09 01:09:03;;;;;;;4.03;2.45;;;10.30;84.50;;;;;;4968335;28;20062;-68
2021/05/09 01:11:29;;;;;;;3.20;1.73;;;10.40;83.80;;;;;;4964683;28;20026;-68
2021/05/09 01:13:55;;;;;;;6.07;1.80;;;10.40;83.90;;;;;;4966497;28;20511;-68
2021/05/09 01:16:20;;;;;;;4.05;2.20;;;10.50;82.90;;;;;;4967768;28;20495;-68
2021/05/09 01:18:46;;;;;;;5.00;1.90;;;10.60;82.70;;;;;;4968572;28;20037;-68
2021/05/09 01:21:11;;;;;;;2.78;2.00;;;10.60;82.30;;;;;;4966883;28;20038;-68
2021/05/09 01:23:37;;;;;;;3.13;1.88;;;10.90;80.80;;;;;;4968113;28;20037;-68
2021/05/09 01:26:02;;;;;;;3.42;1.83;;;10.90;81.30;;;;;;4967010;28;20034;-68
2021/05/09 01:28:28;;;;;;;4.05;2.00;;;10.80;81.10;;;;;;4968525;28;20027;-68
2021/05/09 01:30:54;;;;;;;4.32;1.85;;;10.90;81.10;;;;;;4968255;28;20035;-69
2021/05/09 01:33:19;;;;;;;3.50;1.73;;;11.00;80.40;;;;;;4966785;28;20035;-68
2021/05/09 01:35:45;;;;;;;3.72;1.85;;;10.90;81.40;;;;;;4967405;28;20294;-68
2021/05/09 01:38:11;;;;;;;3.33;1.42;;;10.90;80.80;;;;;;4964270;28;20026;-69
2021/05/09 01:40:36;;;;;;;2.65;1.52;;;11.10;79.60;;;;;;4967351;28;20031;-69
2021/05/09 01:43:02;;;;;;;3.88;1.70;;;11.10;80.30;;;;;;4967765;28;20054;-70
2021/05/09 01:45:27;;;;;;;3.25;1.90;;;11.10;79.90;;;;;;4964874;28;20105;-69
2021/05/09 01:47:53;;;;;;;3.15;1.77;;;11.30;78.60;;;;;;4967672;28;20130;-68
2021/05/09 01:50:19;;;;;;;2.20;1.67;;;11.20;79.50;;;;;;4968295;28;20062;-68
2021/05/09 01:52:45;;;;;;;3.65;1.52;;;11.40;77.70;;;;;;4966555;28;20034;-68
2021/05/09 01:55:14;;;;;;;2.22;1.52;;;11.40;77.60;;;;;;4965302;28;20026;-68
2021/05/09 01:57:40;;;;;;;5.88;1.92;;;11.50;77.30;;;;;;4967026;28;20031;-68
2021/05/09 02:00:09;;;;;;;2.00;1.50;;;11.50;77.40;;;;;;4968069;28;20041;-68
2021/05/09 02:02:35;;;;;;;2.72;1.73;;;11.40;78.10;;;;;;4966806;28;20031;-68
2021/05/09 02:05:00;;;;;;;2.53;1.65;;;11.50;77.30;;;;;;4962757;28;20476;-68
2021/05/09 02:07:26;;;;;;;2.75;1.77;;;11.50;77.10;;;;;;4960489;28;20030;-68
2021/05/09 02:09:51;;;;;;;1.85;1.50;;;11.50;78.10;;;;;;4966962;28;20472;-68
2021/05/09 02:12:17;;;;;;;2.92;1.40;;;11.50;78.40;;;;;;4966389;28;20039;-68
2021/05/09 02:14:43;;;;;;;3.70;1.80;;;11.60;77.20;;;;;;4964663;28;20030;-68
2021/05/09 02:17:09;;;;;;;4.43;1.70;;;11.60;76.60;;;;;;4967124;28;20212;-67
2021/05/09 02:19:34;;;;;;;3.45;1.70;;;11.60;77.20;;;;;;4967362;28;20422;-68
2021/05/09 02:22:00;;;;;;;2.65;1.55;;;11.60;76.40;;;;;;4967050;28;20030;-68
2021/05/09 02:24:26;;;;;;;3.90;1.50;;;11.60;76.50;;;;;;4966420;28;20110;-68
2021/05/09 02:26:51;;;;;;;2.60;1.63;;;11.60;76.60;;;;;;4965590;28;20023;-68
2021/05/09 02:29:17;;;;;;;4.65;1.58;;;11.60;77.00;;;;;;4965653;28;20041;-68
2021/05/09 02:31:42;;;;;;;4.35;1.50;;;11.70;76.50;;;;;;4966351;28;20035;-69
2021/05/09 02:34:08;;;;;;;2.45;1.60;;;11.70;76.80;;;;;;4966846;28;20479;-69
2021/05/09 02:36:34;;;;;;;3.35;1.73;;;11.70;76.50;;;;;;4966901;28;20031;-69
2021/05/09 02:38:59;;;;;;;3.70;1.50;;;11.70;76.20;;;;;;4963835;28;20031;-68
2021/05/09 02:41:25;;;;;;;3.42;1.50;;;11.80;75.90;;;;;;4967278;28;20391;-68
2021/05/09 02:43:51;;;;;;;2.67;1.48;;;11.80;76.20;;;;;;4968476;28;20031;-69
2021/05/09 02:46:16;;;;;;;3.35;1.60;;;11.70;76.10;;;;;;4967147;28;20026;-68
2021/05/09 02:48:42;;;;;;;3.17;1.58;;;11.70;76.10;;;;;;4970722;28;20094;-68
2021/05/09 02:51:08;;;;;;;2.72;1.45;;;11.80;75.30;;;;;;4970335;28;20034;-68
2021/05/09 02:53:33;;;;;;;2.80;1.50;;;11.80;76.10;;;;;;4971088;28;20038;-68
2021/05/09 02:55:59;;;;;;;4.55;1.75;;;11.70;76.30;;;;;;4967770;28;20034;-68
2021/05/09 02:58:24;;;;;;;2.92;1.30;;;11.70;76.30;;;;;;4969410;28;20031;-69
2021/05/09 03:00:50;;;;;;;2.92;1.55;;;11.70;76.20;;;;;;4971105;28;20038;-68
2021/05/09 03:03:16;;;;;;;3.88;1.55;;;12.00;74.50;;;;;;4971599;28;20427;-68
2021/05/09 03:05:41;;;;;;;3.70;1.60;;;11.80;75.70;;;;;;4970446;28;20109;-68
2021/05/09 03:08:07;;;;;;;3.13;1.60;;;11.80;76.20;;;;;;4970180;28;20038;-68
2021/05/09 03:10:33;;;;;;;5.53;1.70;;;11.90;75.10;;;;;;4969898;28;20031;-68
2021/05/09 03:12:59;;;;;;;3.55;1.50;;;11.90;75.30;;;;;;4971286;28;20031;-68
2021/05/09 03:15:25;;;;;;;3.05;1.70;;;11.90;74.60;;;;;;4970703;28;20041;-68
2021/05/09 03:17:50;;;;;;;3.75;1.70;;;12.00;74.90;;;;;;4970283;28;20030;-69
2021/05/09 03:20:16;;;;;;;2.50;1.70;;;11.90;75.00;;;;;;4969631;28;20102;-68
2021/05/09 03:22:42;;;;;;;3.25;1.60;;;11.90;75.30;;;;;;4970396;28;20407;-68
2021/05/09 03:25:08;;;;;;;4.47;1.80;;;11.90;74.80;;;;;;4969407;28;20490;-69
2021/05/09 03:27:33;;;;;;;2.67;1.50;;;11.80;75.00;;;;;;4969328;28;20629;-68
2021/05/09 03:29:59;;;;;;;2.60;1.40;;;11.80;75.10;;;;;;4970193;28;20026;-68
2021/05/09 03:32:25;;;;;;;2.20;1.52;;;11.60;75.90;;;;;;4966804;28;20073;-69
2021/05/09 03:34:50;;;;;;;3.88;1.63;;;11.60;75.70;;;;;;4969792;28;20443;-68
2021/05/09 03:37:16;;;;;;;3.88;1.50;;;11.50;76.20;;;;;;4968738;28;20029;-68
2021/05/09 03:39:41;;;;;;;6.00;1.73;;;11.50;76.10;;;;;;4970334;28;20038;-68
2021/05/09 03:42:07;;;;;;;3.60;1.70;;;11.50;75.90;;;;;;4964601;28;20033;-68
2021/05/09 03:44:34;;;;;;;6.45;1.60;;;11.40;76.40;;;;;;4970077;28;20419;-68
2021/05/09 03:46:59;;;;;;;2.75;1.38;;;11.30;77.00;;;;;;4968889;28;20054;-68
2021/05/09 03:49:25;;;;;;;1.95;1.45;;;11.30;77.20;;;;;;4969766;28;20057;-68
2021/05/09 03:51:51;;;;;;;3.45;1.70;;;11.30;76.90;;;;;;4969338;28;20046;-68
2021/05/09 03:54:16;;;;;;;6.13;1.65;;;11.30;77.00;;;;;;4970869;28;20057;-68
2021/05/09 03:56:42;;;;;;;3.00;1.42;;;11.40;76.60;;;;;;4968611;28;20418;-69
2021/05/09 03:59:07;;;;;;;5.93;1.40;;;11.30;77.00;;;;;;4969037;28;20046;-68
2021/05/09 04:01:33;;;;;;;2.33;1.25;;;11.30;77.30;;;;;;4960174;28;20389;-68
2021/05/09 04:03:58;;;;;;;2.45;1.60;;;11.20;77.70;;;;;;4952721;28;20031;-68
2021/05/09 04:06:24;;;;;;;2.10;1.20;;;11.30;77.00;;;;;;4968679;28;20106;-68
2021/05/09 04:08:49;;;;;;;3.65;1.50;;;11.40;76.40;;;;;;4968911;28;20031;-68
2021/05/09 04:11:16;;;;;;;2.90;1.33;;;11.40;76.30;;;;;;4964588;28;20033;-69
2021/05/09 04:13:49;;;;;;;5.43;1.42;;;11.20;77.20;;;;;;4944861;28;20086;-68
2021/05/09 04:16:16;;;;;;;4.03;1.75;;;11.10;77.50;;;;;;4966191;28;20521;-68
2021/05/09 04:18:41;;;;;;;2.55;1.55;;;11.10;77.40;;;;;;4968614;28;20062;-68
2021/05/09 04:21:07;;;;;;;4.22;1.70;;;11.10;77.50;;;;;;4970086;28;20081;-68
2021/05/09 04:23:33;;;;;;;4.13;1.60;;;11.20;77.00;;;;;;4969793;28;20022;-68
2021/05/09 04:26:00;;;;;;;3.63;1.42;;;11.20;76.80;;;;;;4963611;28;20661;-68
2021/05/09 04:28:25;;;;;;;3.13;1.52;;;11.20;76.90;;;;;;4966463;28;20035;-68
2021/05/09 04:30:54;;;;;;;2.40;1.35;;;11.30;77.00;;;;;;4969445;28;20096;-68
2021/05/09 04:33:25;;;;;;;7.53;1.77;;;11.20;76.90;;;;;;4969610;28;20122;-68
2021/05/09 04:35:51;;;;;;;2.67;1.65;;;11.40;76.10;;;;;;4969026;28;20035;-68
2021/05/09 04:38:17;;;;;;;5.43;1.35;;;11.50;76.00;;;;;;4968400;28;20056;-68
2021/05/09 04:40:43;;;;;;;3.13;1.48;;;11.40;75.80;;;;;;4970139;28;20023;-68
2021/05/09 04:43:10;;;;;;;2.65;1.30;;;11.50;75.40;;;;;;4967820;28;20030;-67
2021/05/09 04:45:36;;;;;;;5.05;1.80;;;11.40;75.80;;;;;;4966904;28;20034;-68
2021/05/09 04:48:03;;;;;;;4.18;1.60;;;11.40;75.70;;;;;;4965130;28;20062;-67
2021/05/09 04:50:29;;;;;;;2.30;1.40;;;11.50;75.50;;;;;;4968758;28;20019;-66
2021/05/09 04:52:54;;;;;;;4.20;1.40;;;11.40;76.30;;;;;;4966836;28;20514;-66
2021/05/09 04:55:20;;;;;;;2.67;1.30;;;11.50;75.60;;;;;;4955800;28;20491;-67
2021/05/09 04:57:46;;;;;;;4.65;1.52;;;11.50;76.10;;;;;;4963697;28;20027;-67
2021/05/09 05:00:16;;;;;;;6.32;1.80;;;11.70;74.70;;;;;;4967048;28;20026;-68
2021/05/09 05:02:47;;;;;;;3.63;1.48;;;11.60;75.50;;;;;;4960740;28;20563;-68
2021/05/09 05:05:14;;;;;;;5.68;1.70;;;11.70;75.00;;;;;;4968432;28;20519;-67
2021/05/09 05:07:40;;;;;;;3.53;1.50;;;11.80;75.10;;;;;;4966672;28;20034;-68
2021/05/09 05:10:07;;;;;;;3.08;1.45;;;12.00;74.60;;;;;;4967440;28;20423;-68
2021/05/09 05:12:32;;;;;;;2.78;1.33;;;11.90;75.40;;;;;;4966986;28;20038;-67
2021/05/09 05:14:58;;;;;;;2.85;1.30;;;12.10;73.60;;;;;;4968070;28;20030;-68
2021/05/09 05:17:23;;;;;;;3.30;1.30;;;12.10;74.20;;;;;;4966251;28;20411;-69
2021/05/09 05:19:49;;;;;;;3.55;1.40;;;12.00;74.50;;;;;;4967901;28;20027;-68
2021/05/09 05:22:15;;;;;;;3.42;1.80;;;12.10;74.60;;;;;;4964619;28;20105;-68
2021/05/09 05:24:40;;;;;;;4.35;1.40;;;12.20;74.30;;;;;;4966403;28;20053;-68
2021/05/09 05:27:06;;;;;;;3.05;1.20;;;12.20;74.00;;;;;;4964903;28;20027;-68
2021/05/09 05:29:32;;;;;;;3.53;1.77;;;12.30;73.40;;;;;;4968455;28;20555;-68
2021/05/09 05:31:57;;;;;;;2.05;1.23;;;12.40;73.30;;;;;;4966341;28;20114;-68
2021/05/09 05:34:23;;;;;;;2.47;1.30;;;12.50;72.90;;;;;;4965158;28;20510;-68
2021/05/09 05:36:48;;;;;;;3.05;1.33;;;12.60;72.50;;;;;;4967833;28;20046;-68
2021/05/09 05:39:14;;;;;;;2.35;1.55;;;12.80;72.10;;;;;;4969189;28;20027;-68
2021/05/09 05:41:40;;;;;;;2.45;1.30;;;12.70;72.50;;;;;;4965610;28;20033;-68
2021/05/09 05:44:07;;;;;;;2.15;1.48;;;12.80;72.80;;;;;;4967433;28;20110;-68
2021/05/09 05:46:33;;;;;;;6.25;1.60;;;12.90;73.30;;;;;;4967759;28;20035;-68
2021/05/09 05:48:59;;;;;;;3.78;1.50;;;13.00;72.70;;;;;;4968488;28;20027;-68
2021/05/09 05:51:24;;;;;;;5.82;1.70;;;13.00;72.70;;;;;;4967152;28;20035;-68
2021/05/09 05:53:57;;;;;;;2.38;1.25;;;13.30;72.30;;;;;;4966730;28;20564;-69
2021/05/09 05:56:24;;;;;;;1.50;1.02;;;13.50;71.90;;;;;;4965704;28;20054;-68
2021/05/09 05:58:50;;;;;;;2.80;1.27;;;13.60;71.10;;;;;;4966077;28;20030;-68
2021/05/09 06:01:16;;;;;;;2.83;1.40;;;13.80;71.00;;;;;;4966180;28;20037;-68
2021/05/09 06:03:42;;;;;;;2.40;1.25;;;13.90;71.10;;;;;;4967195;28;20031;-69
2021/05/09 06:06:07;;;;;;;5.45;1.60;;;14.00;70.60;;;;;;4967869;28;20035;-69
2021/05/09 06:08:33;;;;;;;2.88;1.33;;;14.00;70.60;;;;;;4968314;28;20041;-68
2021/05/09 06:10:59;;;;;;;6.18;1.35;;;14.20;70.90;;;;;;4966862;28;20035;-68
2021/05/09 06:13:24;;;;;;;3.55;1.42;;;14.40;68.70;;;;;;4967652;28;20039;-68
2021/05/09 06:15:51;;;;;;;3.35;1.38;;;14.50;70.10;;;;;;4966329;28;20031;-68
2021/05/09 06:18:16;;;;;;;2.70;1.38;;;14.60;69.50;;;;;;4966299;28;20033;-68
2021/05/09 06:20:42;;;;;;;3.28;1.45;;;14.60;69.80;;;;;;4967012;28;20042;-68
2021/05/09 06:23:10;;;;;;;3.17;1.08;;;14.80;68.40;;;;;;4967249;28;20045;-68
2021/05/09 06:25:36;;;;;;;2.45;1.50;;;15.00;69.50;;;;;;4965404;28;20025;-68
2021/05/09 06:28:02;;;;;;;2.45;1.25;;;15.10;67.80;;;;;;4960327;28;20038;-68
2021/05/09 06:30:28;;;;;;;2.00;1.23;;;15.30;68.10;;;;;;4966957;28;20027;-68
2021/05/09 06:32:54;;;;;;;5.22;1.50;;;15.40;67.90;;;;;;4966646;28;20047;-68
2021/05/09 06:35:19;;;;;;;3.63;1.30;;;15.50;68.00;;;;;;4966681;28;20043;-68
2021/05/09 06:37:45;;;;;;;2.30;1.10;;;15.60;67.10;;;;;;4968559;28;20037;-68
2021/05/09 06:40:12;;;;;;;2.90;1.30;;;15.80;67.50;;;;;;4958432;28;20090;-68
2021/05/09 06:42:37;;;;;;;4.68;1.20;;;16.10;67.60;;;;;;4954782;28;20038;-68
2021/05/09 06:45:08;;;;;;;3.00;1.33;;;16.30;65.60;;;;;;4944093;28;20027;-68
2021/05/09 06:47:34;;;;;;;3.22;1.13;;;16.40;65.30;;;;;;4945384;29;20031;-68
2021/05/09 06:50:00;;;;;;;1.88;1.17;;;16.50;66.60;;;;;;4946095;29;20040;-68
2021/05/09 06:52:26;;;;;;;4.30;1.40;;;16.40;64.50;;;;;;4945929;29;20030;-68
2021/05/09 06:54:51;;;;;;;1.80;1.35;;;16.70;63.60;;;;;;4935476;29;20059;-68
2021/05/09 06:57:17;;;;;;;2.90;1.38;;;16.60;64.20;;;;;;4946711;28;20046;-68
2021/05/09 06:59:43;;;;;;;3.00;1.38;;;16.80;64.00;;;;;;4945598;28;20097;-69
2021/05/09 07:02:08;;;;;;;2.53;1.20;;;16.80;63.10;;;;;;4939840;28;20044;-69
2021/05/09 07:04:34;;;;;;;2.40;1.23;;;17.10;63.90;;;;;;4942508;28;20104;-68
2021/05/09 07:07:00;;;;;;;2.70;1.45;;;17.40;63.40;;;;;;4949829;28;20026;-68
2021/05/09 07:09:25;;;;;;;2.53;1.30;;;17.30;61.20;;;;;;4945139;28;20020;-68
2021/05/09 07:11:51;;;;;;;3.13;1.33;;;17.50;63.10;;;;;;4947541;29;20315;-68
2021/05/09 07:14:17;;;;;;;2.40;1.20;;;17.90;62.90;;;;;;4947740;29;20779;-67
2021/05/09 07:16:42;;;;;;;2.90;1.30;;;17.60;61.40;;;;;;4947207;29;20023;-68
2021/05/09 07:19:09;;;;;;;1.90;1.10;;;17.90;62.20;;;;;;4935856;29;20039;-68
2021/05/09 07:21:40;;;;;;;6.47;1.60;;;18.10;62.90;;;;;;4937554;29;20047;-68
2021/05/09 07:24:06;;;;;;;;;;;18.20;60.80;;;;;;4948239;29;20035;-68
2021/05/09 07:26:31;;;;;;;3.53;1.23;;;18.30;60.40;;;;;;4958614;28;19910;-68
2021/05/09 07:28:57;;;;;;;3.38;1.33;;;18.50;60.20;;;;;;4948565;28;20078;-68
2021/05/09 07:31:23;;;;;;;1.73;1.27;;;18.30;60.40;;;;;;4940963;29;20066;-68
2021/05/09 07:33:48;;;;;;;3.10;1.50;;;18.30;59.40;;;;;;4947988;29;20506;-68
2021/05/09 07:36:14;;;;;;;2.70;1.40;;;18.60;60.90;;;;;;4949455;28;20513;-68
2021/05/09 07:38:39;;;;;;;2.50;1.13;;;18.60;61.00;;;;;;4951979;29;20035;-68
2021/05/09 07:41:05;;;;;;;2.67;1.10;;;18.60;59.00;;;;;;4945447;29;20197;-68
2021/05/09 07:43:32;;;;;;;3.33;1.15;;;18.50;59.20;;;;;;4950888;28;20541;-68
2021/05/09 07:45:58;;;;;;;4.97;1.33;;;18.50;59.30;;;;;;4949169;28;20024;-68
2021/05/09 07:48:23;;;;;;;4.53;1.40;;;18.50;59.10;;;;;;4947203;28;20058;-69
2021/05/09 07:50:49;;;;;;;2.38;1.40;;;18.80;59.90;;;;;;4947207;29;20536;-69
2021/05/09 07:53:15;;;;;;;4.10;1.42;;;18.90;59.90;;;;;;4946028;29;20456;-69
2021/05/09 07:55:41;;;;;;;4.72;1.23;;;19.00;59.40;;;;;;4950354;28;20253;-69
2021/05/09 07:58:17;;;;;;;3.55;1.40;;;19.00;58.10;;;;;;4939534;28;20031;-69
2021/05/09 08:00:43;;;;;;;3.90;1.17;;;19.30;58.70;;;;;;4948710;29;20077;-69
2021/05/09 08:03:09;;;;;;;3.03;1.00;;;19.50;59.10;;;;;;4945434;29;20031;-68
2021/05/09 08:05:35;;;;;;;2.92;1.50;;;19.50;58.60;;;;;;4947044;28;20480;-69
2021/05/09 08:08:01;;;;;;;2.22;1.10;;;19.50;58.80;;;;;;4950971;28;20030;-68
2021/05/09 08:10:27;;;;;;;2.92;1.40;;;19.50;58.70;;;;;;4949701;28;20047;-68
2021/05/09 08:12:54;;;;;;;6.07;1.23;;;19.60;57.80;;;;;;4948179;29;20106;-69
2021/05/09 08:15:23;;;;;;;3.22;0.98;;;19.70;58.20;;;;;;4950506;28;20089;-68
2021/05/09 08:17:49;;;;;;;2.65;1.20;;;19.70;57.80;;;;;;4950461;28;20035;-68
2021/05/09 08:20:16;;;;;;;4.78;1.20;;;19.90;57.30;;;;;;4950145;28;20023;-68
2021/05/09 08:22:44;;;;;;;3.53;1.40;;;19.90;57.60;;;;;;4936437;29;20038;-69
2021/05/09 08:25:10;;;;;;;3.65;1.50;;;20.10;56.60;;;;;;4946090;28;20031;-69
2021/05/09 08:27:36;;;;;;;4.30;1.40;;;20.20;57.50;;;;;;4948200;28;20035;-68
2021/05/09 08:30:03;;;;;;;1.50;1.10;;;20.20;58.30;;;;;;4950634;29;20019;-68
2021/05/09 08:32:29;;;;;;;2.45;1.42;;;20.60;55.80;;;;;;4949591;29;20031;-69
2021/05/09 08:34:57;;;;;;;3.25;1.15;;;20.60;55.20;;;;;;4949001;28;20035;-68
2021/05/09 08:37:22;;;;;;;5.90;1.23;;;20.50;55.60;;;;;;4950007;29;20042;-68
2021/05/09 08:39:48;;;;;;;3.88;1.30;;;20.30;55.70;;;;;;4932297;29;20031;-69
2021/05/09 08:42:14;;;;;;;2.60;1.48;;;20.80;57.20;;;;;;4946683;28;20408;-69
2021/05/09 08:44:40;;;;;;;4.10;1.27;;;20.70;54.40;;;;;;4948110;28;20031;-69
2021/05/09 08:47:09;;;;;;;4.45;1.23;;;20.90;54.60;;;;;;4948574;28;20066;-68
2021/05/09 08:49:39;;;;;;;2.28;1.20;;;21.00;52.20;;;;;;4932070;29;20027;-68
2021/05/09 08:52:06;;;;;;;4.03;1.20;;;21.20;52.10;;;;;;4947573;29;20039;-69
2021/05/09 08:54:31;;;;;;;7.78;1.55;;;21.20;51.80;;;;;;4950098;28;20270;-69
2021/05/09 08:56:57;;;;;;;4.32;1.25;;;21.50;53.50;;;;;;4951938;28;20046;-69
2021/05/09 08:59:23;;;;;;;3.00;1.30;;;21.40;52.30;;;;;;4949303;29;20039;-68
2021/05/09 09:01:49;;;;;;;4.57;1.58;;;21.90;52.10;;;;;;4948880;29;20035;-69
2021/05/09 09:04:14;;;;;;;3.08;1.20;;;21.90;52.40;;;;;;4948294;28;20525;-68
2021/05/09 09:06:42;;;;;;;2.33;1.23;;;22.00;51.90;;;;;;4946774;28;20034;-68
2021/05/09 09:09:18;;;;;;;4.32;1.27;;;22.00;51.00;;;;;;4945471;29;20023;-68
2021/05/09 09:11:57;;;;;;;2.08;1.05;;;21.60;50.90;;;;;;4947511;29;20118;-69
2021/05/09 09:14:27;;;;;;;3.80;1.20;;;21.90;52.80;;;;;;4945525;28;20162;-68
2021/05/09 09:17:15;;;;;;;2.33;1.10;;;21.70;50.90;;;;;;4948595;29;20109;-68
2021/05/09 09:20:06;;;;;;;3.97;1.05;;;22.00;49.90;;;;;;4943815;29;20496;-68
2021/05/09 09:22:53;;;;;;;4.78;1.23;;;22.10;49.40;;;;;;4947314;29;20357;-69
2021/05/09 09:25:20;;;;;;;2.17;0.98;;;22.40;49.80;;;;;;4961731;28;20015;-68
2021/05/09 09:27:47;;;;;;;7.05;1.30;;;22.00;49.80;;;;;;4961480;28;20120;-68
2021/05/09 09:30:15;;;;;;;2.25;1.02;;;22.40;48.60;;;;;;4949508;28;20074;-69
2021/05/09 09:32:41;;;;;;;3.25;1.10;;;22.50;50.20;;;;;;4949443;29;20034;-69
2021/05/09 09:35:27;;;;;;;3.95;1.23;;;22.60;48.80;;;;;;4948698;29;20125;-69
2021/05/09 09:37:53;;;;;;;2.67;1.10;;;22.80;48.70;;;;;;4948454;29;20090;-69
2021/05/09 09:40:18;;;;;;;4.18;1.17;;;22.80;48.20;;;;;;4939112;28;20023;-69
2021/05/09 09:42:46;;;;;;;2.53;1.20;;;22.80;47.20;;;;;;4958006;28;20042;-69
2021/05/09 09:45:14;;;;;;;4.28;1.20;;;23.00;47.90;;;;;;4948811;28;20043;-69
2021/05/09 09:47:50;;;;;;;3.53;1.25;;;22.90;46.30;;;;;;4968022;28;20023;-69
2021/05/09 09:50:41;;;;;;;4.68;1.13;;;23.20;48.60;;;;;;4951765;28;20507;-69
2021/05/09 09:53:35;;;;;;;5.78;1.20;;;23.30;47.80;;;;;;4939816;28;20050;-69
2021/05/09 09:56:04;;;;;;;2.78;1.00;;;23.20;44.70;;;;;;4947046;28;20031;-69
2021/05/09 09:58:53;;;;;;;2.60;1.17;;;23.40;46.40;;;;;;4949369;29;20103;-69
2021/05/09 10:01:28;;;;;;;1.90;0.90;;;23.30;44.00;;;;;;4942025;28;20070;-69
2021/05/09 10:03:55;;;;;;;1.75;0.90;;;23.40;44.10;;;;;;4948542;28;20027;-69
2021/05/09 10:06:22;;;;;;;3.70;0.90;;;24.00;45.30;;;;;;4950978;28;20082;-69
2021/05/09 10:08:48;;;;;;;2.63;1.23;;;24.10;43.90;;;;;;4955127;28;20031;-69
2021/05/09 10:11:15;;;;;;;1.92;1.00;;;24.10;42.40;;;;;;4943513;28;20031;-69
2021/05/09 10:13:41;;;;;;;4.70;1.25;;;24.30;44.00;;;;;;4949363;29;20299;-69
2021/05/09 10:16:07;;;;;;;3.78;1.10;;;24.20;42.30;;;;;;4948494;28;20275;-69
2021/05/09 10:18:37;;;;;;;2.33;0.93;;;23.90;43.40;;;;;;4947583;29;20027;-69
2021/05/09 10:21:02;;;;;;;2.30;0.90;;;24.00;43.10;;;;;;4945492;28;20031;-69
2021/05/09 10:23:28;;;;;;;3.20;1.15;;;24.60;41.50;;;;;;4940774;28;20031;-69
2021/05/09 10:25:59;;;;;;;3.47;1.10;;;24.60;42.30;;;;;;4948343;28;20039;-69
2021/05/09 10:28:26;;;;;;;3.53;1.20;;;24.40;42.90;;;;;;4943389;28;20334;-69
2021/05/09 10:30:52;;;;;;;3.78;1.02;;;24.20;44.10;;;;;;4948725;29;20035;-70
2021/05/09 10:33:43;;;;;;;2.97;1.00;;;24.40;44.50;;;;;;4947620;29;20027;-69
2021/05/09 10:36:30;;;;;;;2.70;0.93;;;24.50;42.00;;;;;;4948059;28;20396;-69
2021/05/09 10:39:17;;;;;;;3.15;1.17;;;24.60;41.50;;;;;;4930941;29;20036;-69
2021/05/09 10:41:54;;;;;;;2.15;0.90;;;25.00;41.40;;;;;;4939997;28;20512;-69
2021/05/09 10:44:47;;;;;;;2.17;0.80;;;25.10;40.60;;;;;;4954437;28;20026;-69
2021/05/09 10:47:33;;;;;;;3.15;0.75;;;25.50;40.20;;;;;;4960649;28;20098;-69
2021/05/09 10:50:14;;;;;;;5.10;0.80;;;25.50;39.70;;;;;;4956189;28;20027;-69
2021/05/09 10:52:43;;;;;;;;;;;25.50;37.90;;;;;;4968580;28;20023;-70
2021/05/09 10:55:45;;;;;;;1.80;0.90;;;25.20;39.00;;;;;;4958803;28;19957;-70
2021/05/09 10:58:14;;;;;;;1.48;0.65;;;25.50;38.60;;;;;;4929501;29;20448;-70
2021/05/09 11:00:58;;;;;;;1.52;0.80;;;25.90;37.10;;;;;;4946563;29;20550;-70
2021/05/09 11:03:39;;;;;;;2.25;0.93;;;26.00;37.10;;;;;;4940865;29;20290;-69
2021/05/09 11:06:11;;;;;;;3.17;0.82;;;25.50;39.00;;;;;;4947349;28;20204;-69
2021/05/09 11:08:43;;;;;;;2.13;0.77;;;25.70;37.20;;;;;;4952742;29;20357;-70
2021/05/09 11:11:24;;;;;;;3.08;0.90;;;25.90;38.90;;;;;;4950933;28;20479;-69
2021/05/09 11:16:29;;;;;;;2.28;0.90;;;26.20;37.40;;;;;;4950202;28;20395;-70
2021/05/09 11:19:25;;;;;;;0.88;0.63;;;26.20;38.80;;;;;;4952107;29;20034;-70
2021/05/09 11:21:56;;;;;;;1.63;0.73;;;26.70;36.60;;;;;;4948723;29;20503;-70
2021/05/09 11:24:23;;;;;;;;;;;26.70;36.50;;;;;;4950413;28;20066;-70
2021/05/09 11:26:50;;;;;;;3.60;0.88;;;26.80;34.20;;;;;;4952044;28;20405;-70
2021/05/09 11:29:18;;;;;;;2.95;0.80;;;26.60;36.10;;;;;;4933593;29;20377;-69
2021/05/09 11:31:46;;;;;;;3.28;0.88;;;26.90;36.20;;;;;;4951071;29;20520;-70
2021/05/09 11:34:13;;;;;;;1.77;0.88;;;26.80;34.90;;;;;;4948873;28;20039;-70
2021/05/09 11:36:40;;;;;;;1.20;0.68;;;27.20;35.80;;;;;;4950912;28;20020;-69
2021/05/09 11:39:14;;;;;;;1.20;0.65;;;26.90;36.00;;;;;;4950397;29;20059;-70
2021/05/09 11:41:54;;;;;;;3.10;0.75;;;26.60;35.30;;;;;;4950858;28;20539;-69
2021/05/09 11:44:22;;;;;;;1.90;0.73;;;27.10;35.70;;;;;;4950822;28;20097;-70
2021/05/09 11:46:48;;;;;;;2.25;0.80;;;27.40;35.80;;;;;;4951076;28;20023;-69
2021/05/09 11:49:21;;;;;;;1.92;0.60;;;27.70;34.20;;;;;;4951384;29;20042;-69
2021/05/09 11:51:55;;;;;;;3.78;0.90;;;26.90;34.80;;;;;;4951407;29;20436;-69
2021/05/09 11:54:25;;;;;;;3.17;0.80;;;27.40;35.30;;;;;;4946612;28;20170;-69
2021/05/09 11:56:54;;;;;;;0.65;0.60;;;27.40;33.90;;;;;;4953257;28;20058;-70
2021/05/09 11:59:30;;;;;;;2.13;0.80;;;27.60;33.90;;;;;;4948727;28;20030;-69
2021/05/09 12:01:56;;;;;;;1.55;0.75;;;27.20;34.00;;;;;;4933238;28;20660;-69
2021/05/09 12:04:23;;;;;;;0.60;0.57;;;27.30;32.00;;;;;;4944076;28;20066;-66
2021/05/09 12:06:49;;;;;;;2.70;0.73;;;28.00;33.50;;;;;;4947218;28;20035;-67
2021/05/09 12:09:15;;;;;;;1.05;0.57;;;27.90;33.60;;;;;;4946077;28;20122;-67
2021/05/09 12:11:41;;;;;;;2.90;0.60;;;28.60;32.90;;;;;;4942957;28;20122;-67
2021/05/09 12:14:06;;;;;;;2.50;0.60;;;28.20;33.20;;;;;;4952410;28;20555;-67
2021/05/09 12:16:53;;;;;;;1.88;0.60;;;28.00;31.20;;;;;;4952253;28;20031;-67
2021/05/09 12:19:19;;;;;;;1.50;0.57;;;27.80;31.30;;;;;;4941698;28;20131;-69
2021/05/09 12:22:00;;;;;;;3.08;0.80;;;28.30;30.60;;;;;;4946838;28;20039;-68
2021/05/09 12:24:27;;;;;;;3.38;0.90;;;28.90;31.70;;;;;;4932503;28;20259;-68
2021/05/09 12:27:05;;;;;;;2.10;0.60;;;29.40;30.40;;;;;;4945864;28;20460;-68
2021/05/09 12:29:41;;;;;;;2.33;0.50;;;29.40;29.50;;;;;;4941122;28;20110;-68
2021/05/09 12:32:25;;;;;;;1.77;0.55;;;30.20;28.90;;;;;;4947532;28;20320;-68
2021/05/09 12:34:59;;;;;;;1.75;0.55;;;30.40;27.50;;;;;;4943733;28;20384;-68
2021/05/09 12:37:29;;;;;;;3.15;0.63;;;30.40;29.40;;;;;;4945357;28;20043;-68
2021/05/09 12:40:14;;;;;;;1.65;0.70;;;30.00;27.90;;;;;;4947202;28;20039;-67
2021/05/09 12:43:06;;;;;;;1.48;0.52;;;29.60;28.40;;;;;;4946339;28;20035;-67
2021/05/09 12:45:51;;;;;;;1.33;0.70;;;29.60;28.50;;;;;;4946055;28;20031;-67
2021/05/09 12:48:30;;;;;;;0.50;0.40;;;28.50;31.20;;;;;;4940963;28;20038;-67
2021/05/09 12:51:03;;;;;;;1.20;0.60;;;29.60;30.30;;;;;;4926376;28;20348;-68
2021/05/09 12:53:50;;;;;;;2.35;0.75;;;29.40;29.80;;;;;;4943794;28;20030;-67
2021/05/09 12:56:15;;;;;;;1.92;0.80;;;29.80;29.90;;;;;;4944894;28;20042;-67